EST,Max TemperatureF,Mean TemperatureF,Min TemperatureF,Max Dew PointF,MeanDew PointF,Min DewpointF,Max Humidity, Mean Humidity, Min Humidity, Max Sea Level PressureIn, Mean Sea Level PressureIn, Min Sea Level PressureIn, Max VisibilityMiles, Mean VisibilityMiles, Min VisibilityMiles, Max Wind SpeedMPH, Mean Wind SpeedMPH, Max Gust SpeedMPH,PrecipitationIn, CloudCover, Events, WindDirDegrees
2011-11-1,57,45,35,41,35,33,100,79,43,30.36,30.29,30.23,10,7,0,7,5,,0.01,0,Fog,163
2011-11-2,62,49,36,36,33,28,89,57,31,30.38,30.28,30.16,10,9,3,9,6,,0.00,0,,170
2011-11-3,63,54,46,37,34,30,61,48,34,30.14,30.03,29.92,10,10,10,12,7,,0.00,0,,202
2011-11-4,53,46,39,43,32,19,87,59,30,30.27,30.09,29.93,10,10,7,15,9,24,0.00,2,,2
2011-11-5,55,44,32,25,20,13,70,44,20,30.43,30.35,30.28,10,10,10,9,5,,0.00,0,,98
2011-11-6,59,46,35,30,22,16,64,38,28,30.44,30.35,30.30,10,10,9,12,7,,0.00,0,,165
2011-11-7,64,53,42,41,35,25,66,49,41,30.39,30.32,30.27,10,10,10,13,8,21,0.00,0,,191
2011-11-8,68,55,42,41,39,37,87,60,34,30.28,30.21,30.11,10,8,2,10,6,,0.00,0,,166
2011-11-9,69,56,42,54,42,34,88,61,33,30.12,29.97,29.85,10,9,5,13,8,21,0.14,3,Rain,173
2011-11-10,57,46,35,52,33,24,87,67,49,30.04,29.94,29.87,10,10,8,20,11,28,0.01,7,Rain,265
2011-11-11,41,37,33,27,24,22,73,63,49,30.05,29.96,29.86,10,10,10,20,11,25,0.00,6,,251
2011-11-12,60,45,30,30,26,21,69,45,31,30.07,30.03,29.99,10,10,10,15,11,29,0.00,0,,195
2011-11-13,64,56,48,43,32,20,52,40,27,30.02,29.91,29.81,10,10,10,21,12,32,0.00,2,,190
2011-11-14,70,62,55,54,51,43,94,69,52,29.85,29.78,29.68,10,8,2,25,13,34,0.48,6,Rain,201
2011-11-15,57,54,51,54,50,48,94,89,82,29.95,29.90,29.78,10,8,2,14,7,18,0.40,8,Rain,202
2011-11-16,54,46,37,52,47,28,94,87,62,30.01,29.88,29.83,10,6,1,17,5,26,0.21,7,Rain,230
2011-11-17,37,34,30,29,22,12,76,60,44,30.28,30.09,30.00,10,10,9,20,8,30,0.00,4,Snow,295
2011-11-18,41,34,26,17,15,14,63,47,33,30.46,30.36,30.20,10,10,10,13,9,21,0.00,1,,204
2011-11-19,55,46,36,34,25,13,47,41,32,30.31,30.20,30.09,10,10,10,20,10,29,0.00,2,,181
2011-11-20,59,54,46,54,49,36,100,81,49,30.21,30.15,30.07,10,6,1,16,10,24,0.23,8,Rain,213
2011-11-21,46,44,42,45,41,38,93,90,82,30.31,30.23,30.18,10,4,0,9,6,,0.14,8,Fog-Rain,356
2011-11-22,57,50,42,55,46,41,100,92,82,30.22,29.98,29.70,10,4,0,13,6,,1.10,8,Fog-Rain,94
2011-11-23,59,48,37,55,41,31,94,81,62,30.24,29.85,29.58,10,9,1,23,13,33,0.17,6,Rain,283
2011-11-24,48,40,33,37,34,30,93,85,64,30.35,30.30,30.24,10,7,1,14,8,20,0.01,4,,215
2011-11-25,57,46,35,36,32,28,96,64,33,30.30,30.23,30.14,10,9,2,15,9,,0.01,0,,188
2011-11-26,57,50,42,41,33,25,71,51,41,30.25,30.18,30.07,10,10,10,12,9,,0.00,0,,170
2011-11-27,62,54,46,52,47,37,94,78,50,30.07,29.97,29.94,10,7,0,13,7,18,0.20,6,Fog-Rain,166
2011-11-28,63,58,53,54,51,49,94,85,65,30.03,29.96,29.84,10,6,1,10,4,,0.09,6,Rain,107
2011-11-29,60,50,39,55,45,29,94,79,60,29.82,29.64,29.53,10,8,2,28,9,39,0.42,7,Rain,164
2011-11-30,39,36,30,32,28,24,89,74,62,30.22,29.87,29.61,10,9,2,21,13,29,0.01,7,Rain-Snow,244